sensor_id;sensor_type;location;lat;lon;timestamp;temperature;humidity
51661;DHT22;37741;49.748;8.490;2023-07-02T00:00:39;20.70;65.70
51661;DHT22;37741;49.748;8.490;2023-07-02T00:03:08;20.70;65.40
51661;DHT22;37741;49.748;8.490;2023-07-02T00:05:35;20.70;65.60
51661;DHT22;37741;49.748;8.490;2023-07-02T00:08:02;20.70;65.40
51661;DHT22;37741;49.748;8.490;2023-07-02T00:10:32;20.70;65.40
51661;DHT22;37741;49.748;8.490;2023-07-02T00:13:08;20.70;65.40
51661;DHT22;37741;49.748;8.490;2023-07-02T00:15:43;20.70;65.20
51661;DHT22;37741;49.748;8.490;2023-07-02T00:18:14;20.70;65.20
51661;DHT22;37741;49.748;8.490;2023-07-02T00:20:41;20.70;64.90
51661;DHT22;37741;49.748;8.490;2023-07-02T00:23:13;20.70;65.00
51661;DHT22;37741;49.748;8.490;2023-07-02T00:26:16;20.70;64.90
51661;DHT22;37741;49.748;8.490;2023-07-02T00:28:54;20.70;64.80
51661;DHT22;37741;49.748;8.490;2023-07-02T00:31:45;20.70;64.80
51661;DHT22;37741;49.748;8.490;2023-07-02T00:34:16;20.70;64.80
51661;DHT22;37741;49.748;8.490;2023-07-02T00:36:44;20.70;64.60
51661;DHT22;37741;49.748;8.490;2023-07-02T00:39:12;20.70;64.60
51661;DHT22;37741;49.748;8.490;2023-07-02T00:41:52;20.70;64.50
51661;DHT22;37741;49.748;8.490;2023-07-02T00:44:18;20.60;64.60
51661;DHT22;37741;49.748;8.490;2023-07-02T00:46:50;20.60;64.40
51661;DHT22;37741;49.748;8.490;2023-07-02T00:49:28;20.60;64.40
51661;DHT22;37741;49.748;8.490;2023-07-02T00:51:57;20.60;64.40
51661;DHT22;37741;49.748;8.490;2023-07-02T00:54:23;20.60;64.50
51661;DHT22;37741;49.748;8.490;2023-07-02T00:56:55;20.50;64.50
51661;DHT22;37741;49.748;8.490;2023-07-02T00:59:21;20.50;64.50
51661;DHT22;37741;49.748;8.490;2023-07-02T01:01:52;20.50;64.60
51661;DHT22;37741;49.748;8.490;2023-07-02T01:04:24;20.50;64.70
51661;DHT22;37741;49.748;8.490;2023-07-02T01:06:56;20.40;64.70
51661;DHT22;37741;49.748;8.490;2023-07-02T01:09:27;20.40;64.70
51661;DHT22;37741;49.748;8.490;2023-07-02T01:11:59;20.40;64.70
51661;DHT22;37741;49.748;8.490;2023-07-02T01:14:40;20.40;64.80
51661;DHT22;37741;49.748;8.490;2023-07-02T01:17:14;20.30;64.80
51661;DHT22;37741;49.748;8.490;2023-07-02T01:19:53;20.30;64.80
51661;DHT22;37741;49.748;8.490;2023-07-02T01:22:27;20.20;64.70
51661;DHT22;37741;49.748;8.490;2023-07-02T01:24:59;20.20;64.80
51661;DHT22;37741;49.748;8.490;2023-07-02T01:27:31;20.20;64.80
51661;DHT22;37741;49.748;8.490;2023-07-02T01:30:01;20.20;64.90
51661;DHT22;37741;49.748;8.490;2023-07-02T01:32:32;20.10;64.80
51661;DHT22;37741;49.748;8.490;2023-07-02T01:35:19;20.10;65.50
51661;DHT22;37741;49.748;8.490;2023-07-02T01:37:50;20.10;64.90
51661;DHT22;37741;49.748;8.490;2023-07-02T01:40:22;20.00;64.80
51661;DHT22;37741;49.748;8.490;2023-07-02T01:42:48;20.00;64.80
51661;DHT22;37741;49.748;8.490;2023-07-02T01:45:19;20.00;64.70
51661;DHT22;37741;49.748;8.490;2023-07-02T01:47:45;20.00;64.30
51661;DHT22;37741;49.748;8.490;2023-07-02T01:50:10;20.00;63.90
51661;DHT22;37741;49.748;8.490;2023-07-02T01:52:41;20.00;64.00
51661;DHT22;37741;49.748;8.490;2023-07-02T01:55:13;20.00;64.00
51661;DHT22;37741;49.748;8.490;2023-07-02T01:57:58;19.90;64.00
51661;DHT22;37741;49.748;8.490;2023-07-02T02:00:36;19.90;63.90
51661;DHT22;37741;49.748;8.490;2023-07-02T02:03:04;19.90;63.80
51661;DHT22;37741;49.748;8.490;2023-07-02T02:05:30;19.90;63.80
51661;DHT22;37741;49.748;8.490;2023-07-02T02:07:56;19.90;63.70
51661;DHT22;37741;49.748;8.490;2023-07-02T02:10:21;19.90;63.70
51661;DHT22;37741;49.748;8.490;2023-07-02T02:12:54;19.80;64.30
51661;DHT22;37741;49.748;8.490;2023-07-02T02:15:22;19.80;63.70
51661;DHT22;37741;49.748;8.490;2023-07-02T02:17:53;19.80;63.80
51661;DHT22;37741;49.748;8.490;2023-07-02T02:20:20;19.80;63.80
51661;DHT22;37741;49.748;8.490;2023-07-02T02:22:50;19.70;63.70
51661;DHT22;37741;49.748;8.490;2023-07-02T02:25:15;19.70;63.80
51661;DHT22;37741;49.748;8.490;2023-07-02T02:27:48;19.70;63.90
51661;DHT22;37741;49.748;8.490;2023-07-02T02:30:13;19.70;63.70
51661;DHT22;37741;49.748;8.490;2023-07-02T02:32:51;19.70;63.80
51661;DHT22;37741;49.748;8.490;2023-07-02T02:35:20;19.70;63.70
51661;DHT22;37741;49.748;8.490;2023-07-02T02:37:45;19.60;63.60
51661;DHT22;37741;49.748;8.490;2023-07-02T02:40:17;19.60;63.60
51661;DHT22;37741;49.748;8.490;2023-07-02T02:42:43;19.60;63.60
51661;DHT22;37741;49.748;8.490;2023-07-02T02:45:21;19.60;63.60
51661;DHT22;37741;49.748;8.490;2023-07-02T02:47:48;19.60;63.60
51661;DHT22;37741;49.748;8.490;2023-07-02T02:50:19;19.60;63.60
51661;DHT22;37741;49.748;8.490;2023-07-02T02:52:51;19.50;63.60
51661;DHT22;37741;49.748;8.490;2023-07-02T02:55:19;19.50;63.60
51661;DHT22;37741;49.748;8.490;2023-07-02T02:57:46;19.50;63.70
51661;DHT22;37741;49.748;8.490;2023-07-02T03:00:12;19.50;63.70
51661;DHT22;37741;49.748;8.490;2023-07-02T03:02:43;19.50;63.70
51661;DHT22;37741;49.748;8.490;2023-07-02T03:05:34;19.40;63.70
51661;DHT22;37741;49.748;8.490;2023-07-02T03:08:12;19.50;63.70
51661;DHT22;37741;49.748;8.490;2023-07-02T03:10:43;19.40;63.70
51661;DHT22;37741;49.748;8.490;2023-07-02T03:13:30;19.40;63.60
51661;DHT22;37741;49.748;8.490;2023-07-02T03:15:59;19.40;63.60
51661;DHT22;37741;49.748;8.490;2023-07-02T03:18:26;19.40;63.60
51661;DHT22;37741;49.748;8.490;2023-07-02T03:20:52;19.40;63.60
51661;DHT22;37741;49.748;8.490;2023-07-02T03:23:35;19.30;64.20
51661;DHT22;37741;49.748;8.490;2023-07-02T03:26:01;19.30;63.60
51661;DHT22;37741;49.748;8.490;2023-07-02T03:28:27;19.40;63.70
51661;DHT22;37741;49.748;8.490;2023-07-02T03:30:54;19.30;63.50
51661;DHT22;37741;49.748;8.490;2023-07-02T03:33:43;19.30;63.60
51661;DHT22;37741;49.748;8.490;2023-07-02T03:36:14;19.30;63.60
51661;DHT22;37741;49.748;8.490;2023-07-02T03:39:02;19.30;63.50
51661;DHT22;37741;49.748;8.490;2023-07-02T03:41:58;19.30;63.40
51661;DHT22;37741;49.748;8.490;2023-07-02T03:44:24;19.30;63.40
51661;DHT22;37741;49.748;8.490;2023-07-02T03:46:51;19.30;63.30
51661;DHT22;37741;49.748;8.490;2023-07-02T03:49:39;19.30;63.20
51661;DHT22;37741;49.748;8.490;2023-07-02T03:52:12;19.30;63.10
51661;DHT22;37741;49.748;8.490;2023-07-02T03:54:37;19.30;63.10
51661;DHT22;37741;49.748;8.490;2023-07-02T03:59:56;19.40;63.00
51661;DHT22;37741;49.748;8.490;2023-07-02T04:02:22;19.40;63.00
51661;DHT22;37741;49.748;8.490;2023-07-02T04:04:55;19.30;62.90
51661;DHT22;37741;49.748;8.490;2023-07-02T04:07:23;19.40;62.90
51661;DHT22;37741;49.748;8.490;2023-07-02T04:10:01;19.40;62.90
51661;DHT22;37741;49.748;8.490;2023-07-02T04:12:48;19.40;62.70
51661;DHT22;37741;49.748;8.490;2023-07-02T04:15:18;19.30;62.70
51661;DHT22;37741;49.748;8.490;2023-07-02T04:17:43;19.30;62.70
51661;DHT22;37741;49.748;8.490;2023-07-02T04:20:25;19.30;62.70
51661;DHT22;37741;49.748;8.490;2023-07-02T04:23:00;19.30;62.70
51661;DHT22;37741;49.748;8.490;2023-07-02T04:25:29;19.30;62.70
51661;DHT22;37741;49.748;8.490;2023-07-02T04:27:55;19.30;62.70
51661;DHT22;37741;49.748;8.490;2023-07-02T04:30:31;19.30;62.70
51661;DHT22;37741;49.748;8.490;2023-07-02T04:33:02;19.30;62.80
51661;DHT22;37741;49.748;8.490;2023-07-02T04:35:44;19.20;62.80
51661;DHT22;37741;49.748;8.490;2023-07-02T04:38:11;19.20;62.90
51661;DHT22;37741;49.748;8.490;2023-07-02T04:40:39;19.20;62.90
51661;DHT22;37741;49.748;8.490;2023-07-02T04:43:07;19.10;62.90
51661;DHT22;37741;49.748;8.490;2023-07-02T04:45:35;19.10;63.10
51661;DHT22;37741;49.748;8.490;2023-07-02T04:48:42;19.10;63.20
51661;DHT22;37741;49.748;8.490;2023-07-02T04:51:26;19.00;63.30
51661;DHT22;37741;49.748;8.490;2023-07-02T04:53:52;19.10;63.50
51661;DHT22;37741;49.748;8.490;2023-07-02T04:56:18;19.00;63.40
51661;DHT22;37741;49.748;8.490;2023-07-02T04:59:07;19.00;63.50
51661;DHT22;37741;49.748;8.490;2023-07-02T05:01:32;19.00;63.60
51661;DHT22;37741;49.748;8.490;2023-07-02T05:03:59;19.00;63.60
51661;DHT22;37741;49.748;8.490;2023-07-02T05:06:25;19.00;63.60
51661;DHT22;37741;49.748;8.490;2023-07-02T05:08:55;19.00;63.70
51661;DHT22;37741;49.748;8.490;2023-07-02T05:11:42;19.00;63.70
51661;DHT22;37741;49.748;8.490;2023-07-02T05:14:20;18.90;63.70
51661;DHT22;37741;49.748;8.490;2023-07-02T05:16:48;18.90;63.70
51661;DHT22;37741;49.748;8.490;2023-07-02T05:19:26;18.90;63.90
51661;DHT22;37741;49.748;8.490;2023-07-02T05:21:55;18.90;63.80
51661;DHT22;37741;49.748;8.490;2023-07-02T05:24:24;18.90;63.90
51661;DHT22;37741;49.748;8.490;2023-07-02T05:27:13;18.90;63.90
51661;DHT22;37741;49.748;8.490;2023-07-02T05:29:42;18.90;63.90
51661;DHT22;37741;49.748;8.490;2023-07-02T05:32:13;18.90;63.90
51661;DHT22;37741;49.748;8.490;2023-07-02T05:34:44;18.90;63.90
51661;DHT22;37741;49.748;8.490;2023-07-02T05:37:14;18.90;63.90
51661;DHT22;37741;49.748;8.490;2023-07-02T05:39:41;18.90;63.90
51661;DHT22;37741;49.748;8.490;2023-07-02T05:42:15;18.90;63.90
51661;DHT22;37741;49.748;8.490;2023-07-02T05:45:14;18.90;64.00
51661;DHT22;37741;49.748;8.490;2023-07-02T05:48:08;18.90;64.00
51661;DHT22;37741;49.748;8.490;2023-07-02T05:50:44;18.90;64.00
51661;DHT22;37741;49.748;8.490;2023-07-02T05:53:14;18.90;64.00
51661;DHT22;37741;49.748;8.490;2023-07-02T05:55:46;18.90;64.00
51661;DHT22;37741;49.748;8.490;2023-07-02T05:58:12;18.90;64.10
51661;DHT22;37741;49.748;8.490;2023-07-02T06:00:38;18.90;64.10
51661;DHT22;37741;49.748;8.490;2023-07-02T06:03:09;18.90;64.00
51661;DHT22;37741;49.748;8.490;2023-07-02T06:06:02;18.90;64.20
51661;DHT22;37741;49.748;8.490;2023-07-02T06:08:45;18.90;64.40
51661;DHT22;37741;49.748;8.490;2023-07-02T06:11:40;18.90;64.40
51661;DHT22;37741;49.748;8.490;2023-07-02T06:14:07;19.00;64.30
51661;DHT22;37741;49.748;8.490;2023-07-02T06:16:33;19.00;64.30
51661;DHT22;37741;49.748;8.490;2023-07-02T06:19:11;19.00;64.20
51661;DHT22;37741;49.748;8.490;2023-07-02T06:21:38;19.00;64.20
51661;DHT22;37741;49.748;8.490;2023-07-02T06:24:14;19.00;64.40
51661;DHT22;37741;49.748;8.490;2023-07-02T06:26:43;19.00;64.40
51661;DHT22;37741;49.748;8.490;2023-07-02T06:29:14;19.10;64.40
51661;DHT22;37741;49.748;8.490;2023-07-02T06:31:41;19.00;64.30
51661;DHT22;37741;49.748;8.490;2023-07-02T06:34:25;19.10;64.30
51661;DHT22;37741;49.748;8.490;2023-07-02T06:36:56;19.00;64.20
51661;DHT22;37741;49.748;8.490;2023-07-02T06:39:22;19.10;64.30
51661;DHT22;37741;49.748;8.490;2023-07-02T06:41:51;19.10;64.30
51661;DHT22;37741;49.748;8.490;2023-07-02T06:44:17;19.10;64.30
51661;DHT22;37741;49.748;8.490;2023-07-02T06:46:52;19.10;64.30
51661;DHT22;37741;49.748;8.490;2023-07-02T06:49:23;19.10;64.20
51661;DHT22;37741;49.748;8.490;2023-07-02T06:51:49;19.10;64.90
51661;DHT22;37741;49.748;8.490;2023-07-02T06:54:15;19.10;64.20
51661;DHT22;37741;49.748;8.490;2023-07-02T06:56:50;19.10;64.20
51661;DHT22;37741;49.748;8.490;2023-07-02T06:59:37;19.10;64.90
51661;DHT22;37741;49.748;8.490;2023-07-02T07:02:07;19.10;64.20
51661;DHT22;37741;49.748;8.490;2023-07-02T07:04:42;19.20;64.30
51661;DHT22;37741;49.748;8.490;2023-07-02T07:07:19;19.20;64.30
51661;DHT22;37741;49.748;8.490;2023-07-02T07:09:45;19.20;64.30
51661;DHT22;37741;49.748;8.490;2023-07-02T07:12:19;19.20;64.30
51661;DHT22;37741;49.748;8.490;2023-07-02T07:14:45;19.30;64.20
51661;DHT22;37741;49.748;8.490;2023-07-02T07:17:11;19.40;64.10
51661;DHT22;37741;49.748;8.490;2023-07-02T07:19:57;19.40;63.80
51661;DHT22;37741;49.748;8.490;2023-07-02T07:22:35;19.50;63.60
51661;DHT22;37741;49.748;8.490;2023-07-02T07:25:15;19.50;63.50
51661;DHT22;37741;49.748;8.490;2023-07-02T07:27:41;19.60;63.30
51661;DHT22;37741;49.748;8.490;2023-07-02T07:30:16;19.60;63.60
51661;DHT22;37741;49.748;8.490;2023-07-02T07:32:53;19.70;62.70
51661;DHT22;37741;49.748;8.490;2023-07-02T07:35:29;19.80;62.30
51661;DHT22;37741;49.748;8.490;2023-07-02T07:37:56;19.90;62.10
51661;DHT22;37741;49.748;8.490;2023-07-02T07:40:41;20.00;61.70
51661;DHT22;37741;49.748;8.490;2023-07-02T07:43:06;20.10;61.40
51661;DHT22;37741;49.748;8.490;2023-07-02T07:45:39;20.20;61.00
51661;DHT22;37741;49.748;8.490;2023-07-02T07:48:09;20.20;60.70
51661;DHT22;37741;49.748;8.490;2023-07-02T07:50:39;20.30;60.30
51661;DHT22;37741;49.748;8.490;2023-07-02T07:53:07;20.30;60.10
51661;DHT22;37741;49.748;8.490;2023-07-02T07:55:33;20.40;59.70
51661;DHT22;37741;49.748;8.490;2023-07-02T07:58:29;20.40;59.70
51661;DHT22;37741;49.748;8.490;2023-07-02T08:01:22;20.40;58.40
51661;DHT22;37741;49.748;8.490;2023-07-02T08:03:48;20.40;59.10
51661;DHT22;37741;49.748;8.490;2023-07-02T08:06:21;20.40;58.80
51661;DHT22;37741;49.748;8.490;2023-07-02T08:09:11;20.40;58.50
51661;DHT22;37741;49.748;8.490;2023-07-02T08:11:37;20.40;58.30
51661;DHT22;37741;49.748;8.490;2023-07-02T08:14:06;20.50;57.90
51661;DHT22;37741;49.748;8.490;2023-07-02T08:16:34;20.50;58.80
51661;DHT22;37741;49.748;8.490;2023-07-02T08:19:53;20.50;58.60
51661;DHT22;37741;49.748;8.490;2023-07-02T08:22:21;20.50;58.60
51661;DHT22;37741;49.748;8.490;2023-07-02T08:24:47;20.50;57.90
51661;DHT22;37741;49.748;8.490;2023-07-02T08:27:19;20.50;58.50
51661;DHT22;37741;49.748;8.490;2023-07-02T08:29:54;20.60;58.30
51661;DHT22;37741;49.748;8.490;2023-07-02T08:32:29;20.60;58.40
51661;DHT22;37741;49.748;8.490;2023-07-02T08:34:57;20.60;57.90
51661;DHT22;37741;49.748;8.490;2023-07-02T08:37:24;20.60;58.40
51661;DHT22;37741;49.748;8.490;2023-07-02T08:39:51;20.60;58.40
51661;DHT22;37741;49.748;8.490;2023-07-02T08:42:22;20.60;58.40
51661;DHT22;37741;49.748;8.490;2023-07-02T08:44:47;20.60;58.40
51661;DHT22;37741;49.748;8.490;2023-07-02T08:47:17;20.60;58.20
51661;DHT22;37741;49.748;8.490;2023-07-02T08:49:43;20.60;58.20
51661;DHT22;37741;49.748;8.490;2023-07-02T08:52:16;20.70;58.40
51661;DHT22;37741;49.748;8.490;2023-07-02T08:54:42;20.60;56.90
51661;DHT22;37741;49.748;8.490;2023-07-02T08:57:24;20.60;57.60
51661;DHT22;37741;49.748;8.490;2023-07-02T08:59:56;20.60;58.00
51661;DHT22;37741;49.748;8.490;2023-07-02T09:02:35;20.70;58.30
51661;DHT22;37741;49.748;8.490;2023-07-02T09:05:04;20.70;58.20
51661;DHT22;37741;49.748;8.490;2023-07-02T09:07:30;20.70;57.30
51661;DHT22;37741;49.748;8.490;2023-07-02T09:10:10;20.70;57.70
51661;DHT22;37741;49.748;8.490;2023-07-02T09:12:37;20.60;57.70
51661;DHT22;37741;49.748;8.490;2023-07-02T09:15:05;20.70;57.20
51661;DHT22;37741;49.748;8.490;2023-07-02T09:17:38;20.70;57.60
51661;DHT22;37741;49.748;8.490;2023-07-02T09:20:13;20.70;57.40
51661;DHT22;37741;49.748;8.490;2023-07-02T09:23:05;20.70;57.10
51661;DHT22;37741;49.748;8.490;2023-07-02T09:25:37;20.70;57.30
51661;DHT22;37741;49.748;8.490;2023-07-02T09:28:25;20.80;57.00
51661;DHT22;37741;49.748;8.490;2023-07-02T09:31:00;20.80;57.00
51661;DHT22;37741;49.748;8.490;2023-07-02T09:33:28;20.80;56.90
51661;DHT22;37741;49.748;8.490;2023-07-02T09:36:03;20.80;57.30
51661;DHT22;37741;49.748;8.490;2023-07-02T09:38:34;20.80;57.10
51661;DHT22;37741;49.748;8.490;2023-07-02T09:41:15;20.80;57.10
51661;DHT22;37741;49.748;8.490;2023-07-02T09:43:41;20.90;57.30
51661;DHT22;37741;49.748;8.490;2023-07-02T09:46:08;20.90;57.00
51661;DHT22;37741;49.748;8.490;2023-07-02T09:48:42;20.90;57.20
51661;DHT22;37741;49.748;8.490;2023-07-02T09:51:08;21.00;57.10
51661;DHT22;37741;49.748;8.490;2023-07-02T09:53:56;21.00;56.70
51661;DHT22;37741;49.748;8.490;2023-07-02T09:56:24;21.00;56.50
51661;DHT22;37741;49.748;8.490;2023-07-02T09:58:50;21.00;56.30
51661;DHT22;37741;49.748;8.490;2023-07-02T10:01:40;21.00;56.60
51661;DHT22;37741;49.748;8.490;2023-07-02T10:04:18;21.10;56.70
51661;DHT22;37741;49.748;8.490;2023-07-02T10:06:49;21.10;56.60
51661;DHT22;37741;49.748;8.490;2023-07-02T10:09:17;21.20;56.20
51661;DHT22;37741;49.748;8.490;2023-07-02T10:11:51;21.20;56.10
51661;DHT22;37741;49.748;8.490;2023-07-02T10:14:20;21.20;55.90
51661;DHT22;37741;49.748;8.490;2023-07-02T10:17:07;21.30;56.10
51661;DHT22;37741;49.748;8.490;2023-07-02T10:19:34;21.30;55.70
51661;DHT22;37741;49.748;8.490;2023-07-02T10:22:04;21.40;55.40
51661;DHT22;37741;49.748;8.490;2023-07-02T10:24:37;21.30;55.10
51661;DHT22;37741;49.748;8.490;2023-07-02T10:27:03;21.40;54.80
51661;DHT22;37741;49.748;8.490;2023-07-02T10:29:35;21.50;55.90
51661;DHT22;37741;49.748;8.490;2023-07-02T10:32:02;21.50;55.10
51661;DHT22;37741;49.748;8.490;2023-07-02T10:34:35;21.50;54.90
51661;DHT22;37741;49.748;8.490;2023-07-02T10:37:04;21.50;54.90
51661;DHT22;37741;49.748;8.490;2023-07-02T10:39:31;21.60;55.10
51661;DHT22;37741;49.748;8.490;2023-07-02T10:42:10;21.60;54.50
51661;DHT22;37741;49.748;8.490;2023-07-02T10:45:02;21.60;54.90
51661;DHT22;37741;49.748;8.490;2023-07-02T10:47:33;21.60;54.40
51661;DHT22;37741;49.748;8.490;2023-07-02T10:50:26;21.70;54.50
51661;DHT22;37741;49.748;8.490;2023-07-02T10:52:53;21.70;53.80
51661;DHT22;37741;49.748;8.490;2023-07-02T10:55:27;21.70;54.20
51661;DHT22;37741;49.748;8.490;2023-07-02T10:58:07;21.80;53.50
51661;DHT22;37741;49.748;8.490;2023-07-02T11:00:44;21.80;53.10
51661;DHT22;37741;49.748;8.490;2023-07-02T11:03:37;21.90;53.60
51661;DHT22;37741;49.748;8.490;2023-07-02T11:06:04;22.00;53.20
51661;DHT22;37741;49.748;8.490;2023-07-02T11:08:42;22.00;53.30
51661;DHT22;37741;49.748;8.490;2023-07-02T11:11:08;22.00;53.00
51661;DHT22;37741;49.748;8.490;2023-07-02T11:13:34;22.10;52.40
51661;DHT22;37741;49.748;8.490;2023-07-02T11:15:59;22.20;52.30
51661;DHT22;37741;49.748;8.490;2023-07-02T11:18:31;22.30;52.40
51661;DHT22;37741;49.748;8.490;2023-07-02T11:21:18;22.40;52.20
51661;DHT22;37741;49.748;8.490;2023-07-02T11:24:06;22.40;51.60
51661;DHT22;37741;49.748;8.490;2023-07-02T11:26:40;22.50;52.20
51661;DHT22;37741;49.748;8.490;2023-07-02T11:29:12;22.60;52.00
51661;DHT22;37741;49.748;8.490;2023-07-02T11:31:43;22.60;51.30
51661;DHT22;37741;49.748;8.490;2023-07-02T11:34:22;22.60;51.70
51661;DHT22;37741;49.748;8.490;2023-07-02T11:36:57;22.70;51.90
51661;DHT22;37741;49.748;8.490;2023-07-02T11:39:22;22.80;50.60
51661;DHT22;37741;49.748;8.490;2023-07-02T11:41:49;22.90;50.70
51661;DHT22;37741;49.748;8.490;2023-07-02T11:44:42;22.90;50.80
51661;DHT22;37741;49.748;8.490;2023-07-02T11:47:09;22.90;51.00
51661;DHT22;37741;49.748;8.490;2023-07-02T11:49:34;22.90;50.90
51661;DHT22;37741;49.748;8.490;2023-07-02T11:52:03;23.00;50.60
51661;DHT22;37741;49.748;8.490;2023-07-02T11:54:33;23.00;50.90
51661;DHT22;37741;49.748;8.490;2023-07-02T11:57:07;23.00;50.80
51661;DHT22;37741;49.748;8.490;2023-07-02T11:59:41;23.00;49.80
51661;DHT22;37741;49.748;8.490;2023-07-02T12:02:16;23.10;50.30
51661;DHT22;37741;49.748;8.490;2023-07-02T12:04:42;23.10;50.00
51661;DHT22;37741;49.748;8.490;2023-07-02T12:07:20;23.20;50.10
51661;DHT22;37741;49.748;8.490;2023-07-02T12:09:46;23.20;49.80
51661;DHT22;37741;49.748;8.490;2023-07-02T12:12:24;23.20;49.90
51661;DHT22;37741;49.748;8.490;2023-07-02T12:14:56;23.30;49.30
51661;DHT22;37741;49.748;8.490;2023-07-02T12:17:23;23.30;49.00
51661;DHT22;37741;49.748;8.490;2023-07-02T12:19:49;23.30;49.40
51661;DHT22;37741;49.748;8.490;2023-07-02T12:22:51;23.40;49.00
51661;DHT22;37741;49.748;8.490;2023-07-02T12:25:17;23.40;49.40
51661;DHT22;37741;49.748;8.490;2023-07-02T12:27:51;23.50;49.00
51661;DHT22;37741;49.748;8.490;2023-07-02T12:30:17;23.50;48.60
51661;DHT22;37741;49.748;8.490;2023-07-02T12:32:49;23.50;48.70
51661;DHT22;37741;49.748;8.490;2023-07-02T12:35:15;23.60;48.70
51661;DHT22;37741;49.748;8.490;2023-07-02T12:37:52;23.60;48.80
51661;DHT22;37741;49.748;8.490;2023-07-02T12:40:18;23.60;49.00
51661;DHT22;37741;49.748;8.490;2023-07-02T12:43:03;23.60;48.30
51661;DHT22;37741;49.748;8.490;2023-07-02T12:45:31;23.60;48.60
51661;DHT22;37741;49.748;8.490;2023-07-02T12:47:57;23.60;47.90
51661;DHT22;37741;49.748;8.490;2023-07-02T12:50:26;23.60;48.10
51661;DHT22;37741;49.748;8.490;2023-07-02T12:53:04;23.70;48.30
51661;DHT22;37741;49.748;8.490;2023-07-02T12:55:32;23.70;47.80
51661;DHT22;37741;49.748;8.490;2023-07-02T12:58:00;23.80;47.80
51661;DHT22;37741;49.748;8.490;2023-07-02T13:00:33;23.80;47.80
51661;DHT22;37741;49.748;8.490;2023-07-02T13:02:58;23.90;47.40
51661;DHT22;37741;49.748;8.490;2023-07-02T13:05:24;23.90;47.20
51661;DHT22;37741;49.748;8.490;2023-07-02T13:08:13;23.90;47.50
51661;DHT22;37741;49.748;8.490;2023-07-02T13:10:40;24.00;47.20
51661;DHT22;37741;49.748;8.490;2023-07-02T13:13:07;24.00;47.20
51661;DHT22;37741;49.748;8.490;2023-07-02T13:15:39;24.10;47.30
51661;DHT22;37741;49.748;8.490;2023-07-02T13:18:10;24.10;47.50
51661;DHT22;37741;49.748;8.490;2023-07-02T13:20:41;24.20;47.30
51661;DHT22;37741;49.748;8.490;2023-07-02T13:23:12;24.20;47.40
51661;DHT22;37741;49.748;8.490;2023-07-02T13:25:38;24.20;47.30
51661;DHT22;37741;49.748;8.490;2023-07-02T13:28:06;24.30;47.40
51661;DHT22;37741;49.748;8.490;2023-07-02T13:30:31;24.30;47.10
51661;DHT22;37741;49.748;8.490;2023-07-02T13:33:05;24.40;47.10
51661;DHT22;37741;49.748;8.490;2023-07-02T13:35:32;24.40;47.00
51661;DHT22;37741;49.748;8.490;2023-07-02T13:37:59;24.50;46.70
51661;DHT22;37741;49.748;8.490;2023-07-02T13:40:43;24.50;46.50
51661;DHT22;37741;49.748;8.490;2023-07-02T13:43:10;24.50;46.70
51661;DHT22;37741;49.748;8.490;2023-07-02T13:45:51;24.50;46.60
51661;DHT22;37741;49.748;8.490;2023-07-02T13:48:25;24.60;46.70
51661;DHT22;37741;49.748;8.490;2023-07-02T13:50:57;24.60;46.30
51661;DHT22;37741;49.748;8.490;2023-07-02T13:53:31;24.60;47.00
51661;DHT22;37741;49.748;8.490;2023-07-02T13:56:01;24.70;46.70
51661;DHT22;37741;49.748;8.490;2023-07-02T13:58:26;24.70;46.40
51661;DHT22;37741;49.748;8.490;2023-07-02T14:00:54;24.70;46.00
51661;DHT22;37741;49.748;8.490;2023-07-02T14:03:26;24.80;45.50
51661;DHT22;37741;49.748;8.490;2023-07-02T14:05:57;24.80;46.20
51661;DHT22;37741;49.748;8.490;2023-07-02T14:08:29;24.80;45.50
51661;DHT22;37741;49.748;8.490;2023-07-02T14:10:54;24.80;44.40
51661;DHT22;37741;49.748;8.490;2023-07-02T14:13:20;24.80;44.90
51661;DHT22;37741;49.748;8.490;2023-07-02T14:15:51;24.90;45.50
51661;DHT22;37741;49.748;8.490;2023-07-02T14:18:18;24.90;44.20
51661;DHT22;37741;49.748;8.490;2023-07-02T14:20:44;25.00;44.50
51661;DHT22;37741;49.748;8.490;2023-07-02T14:23:15;25.00;45.00
51661;DHT22;37741;49.748;8.490;2023-07-02T14:25:42;25.10;44.20
51661;DHT22;37741;49.748;8.490;2023-07-02T14:28:10;25.10;45.40
51661;DHT22;37741;49.748;8.490;2023-07-02T14:30:57;25.10;45.70
51661;DHT22;37741;49.748;8.490;2023-07-02T14:33:26;25.10;44.40
51661;DHT22;37741;49.748;8.490;2023-07-02T14:35:53;25.20;44.90
51661;DHT22;37741;49.748;8.490;2023-07-02T14:38:26;25.20;44.40
51661;DHT22;37741;49.748;8.490;2023-07-02T14:41:02;25.30;46.00
51661;DHT22;37741;49.748;8.490;2023-07-02T14:43:39;25.30;45.20
51661;DHT22;37741;49.748;8.490;2023-07-02T14:46:07;25.30;43.60
51661;DHT22;37741;49.748;8.490;2023-07-02T14:48:48;25.40;44.50
51661;DHT22;37741;49.748;8.490;2023-07-02T14:51:13;25.50;44.50
51661;DHT22;37741;49.748;8.490;2023-07-02T14:53:57;25.50;44.40
51661;DHT22;37741;49.748;8.490;2023-07-02T14:56:27;25.70;43.80
51661;DHT22;37741;49.748;8.490;2023-07-02T14:59:09;25.80;43.90
51661;DHT22;37741;49.748;8.490;2023-07-02T15:01:41;25.90;43.90
51661;DHT22;37741;49.748;8.490;2023-07-02T15:04:29;26.00;44.20
51661;DHT22;37741;49.748;8.490;2023-07-02T15:07:00;26.00;43.90
51661;DHT22;37741;49.748;8.490;2023-07-02T15:09:35;26.10;43.90
51661;DHT22;37741;49.748;8.490;2023-07-02T15:12:14;26.10;43.50
51661;DHT22;37741;49.748;8.490;2023-07-02T15:14:39;26.30;43.60
51661;DHT22;37741;49.748;8.490;2023-07-02T15:17:05;26.40;43.00
51661;DHT22;37741;49.748;8.490;2023-07-02T15:19:31;26.50;42.50
51661;DHT22;37741;49.748;8.490;2023-07-02T15:21:58;26.60;42.60
51661;DHT22;37741;49.748;8.490;2023-07-02T15:24:36;26.70;42.80
51661;DHT22;37741;49.748;8.490;2023-07-02T15:29:55;26.80;42.60
51661;DHT22;37741;49.748;8.490;2023-07-02T15:32:21;26.80;42.70
51661;DHT22;37741;49.748;8.490;2023-07-02T15:34:47;26.90;42.10
51661;DHT22;37741;49.748;8.490;2023-07-02T15:37:22;27.00;42.60
51661;DHT22;37741;49.748;8.490;2023-07-02T15:39:52;27.00;42.20
51661;DHT22;37741;49.748;8.490;2023-07-02T15:42:24;27.00;42.20
51661;DHT22;37741;49.748;8.490;2023-07-02T15:44:57;27.00;42.30
51661;DHT22;37741;49.748;8.490;2023-07-02T15:47:28;26.90;41.90
51661;DHT22;37741;49.748;8.490;2023-07-02T15:50:12;26.90;42.40
51661;DHT22;37741;49.748;8.490;2023-07-02T15:52:38;26.90;42.20
51661;DHT22;37741;49.748;8.490;2023-07-02T15:55:05;26.90;42.60
51661;DHT22;37741;49.748;8.490;2023-07-02T15:57:36;26.90;42.20
51661;DHT22;37741;49.748;8.490;2023-07-02T16:00:12;26.90;41.60
51661;DHT22;37741;49.748;8.490;2023-07-02T16:02:39;27.00;42.30
51661;DHT22;37741;49.748;8.490;2023-07-02T16:05:09;27.00;41.90
51661;DHT22;37741;49.748;8.490;2023-07-02T16:07:35;27.10;41.90
51661;DHT22;37741;49.748;8.490;2023-07-02T16:10:04;27.20;41.30